KCVS/CVS METAR and TAF weather

Enter ICAO airport designator
Station Type Date Time Source
KCVS METAR 2022/01/29 00:58 UTC NOAA

KCVS 290058Z AUTO 28004KT 10SM CLR 05/M11 A3043 RMK AO2 SLP325 T00531113 $


Station Type Date Time Source
KCVS Decoded METAR 2022/01/29 00:58 UTC NOAA

Cannon Air Force Base / Clovis, NM, United States (KCVS) 34-23N 103-19W
Jan 28, 2022 - 07:58 PM EST / 2022.01.29 0058 UTC
Wind: from the W (280 degrees) at 5 MPH (4 KT):0
Visibility: 10 mile(s):0
Sky conditions: clear
Temperature: 41.5 F (5.3 C)
Dew Point: 11.7 F (-11.3 C)
Relative Humidity: 28%
Pressure (altimeter): 30.43 in. Hg (1030 hPa)
ob: KCVS 290058Z AUTO 28004KT 10SM CLR 05/M11 A3043 RMK AO2 SLP325 T00531113
cycle: 1

Station Type Date Time Source
KCVS TAF 2022/01/28 18:04 UTC NOAA

TAF KCVS 281800Z 2818/3000 28010G15KT 9999 SKC QNH3043INS
BECMG 2820/2821 31009KT 9999 SKC QNH3042INS
BECMG 2823/2824 VRB06KT 9999 SKC QNH3032INS
BECMG 2916/2917 25010G15KT 9999 SKC QNH3015INS TX11/2918Z TNM04/2913Z

Example: see airport list